Time;durP1;ratioP1;P1;durP2;ratioP2;P2;SDS_P1;SDS_P2;PMS_P1;PMS_P2;Temp;Humidity;BMP_temperature;BMP_pressure;BME280_temperature;BME280_humidity;BME280_pressure;Samples;Min_cycle;Max_cycle;Signal;HPM_P1;HPM_P2
2022/06/26 00:00:32;;;;;;;2.72;0.98;;;9.80;78.90;;;;;;4858293;29;20523;-80
2022/06/26 00:03:00;;;;;;;2.38;1.23;;;9.80;79.00;;;;;;4849939;29;20049;-80
2022/06/26 00:05:28;;;;;;;7.97;1.58;;;9.80;79.20;;;;;;4848475;29;20060;-80
2022/06/26 00:07:55;;;;;;;2.95;1.20;;;9.80;79.40;;;;;;4852703;29;20519;-80
2022/06/26 00:10:23;;;;;;;5.55;1.40;;;9.80;79.60;;;;;;4852977;29;20058;-80
2022/06/26 00:12:51;;;;;;;4.80;1.25;;;9.80;79.70;;;;;;4857558;29;20049;-80
2022/06/26 00:15:18;;;;;;;2.08;1.20;;;9.90;79.70;;;;;;4857411;29;20058;-81
2022/06/26 00:17:46;;;;;;;4.25;1.38;;;9.90;79.80;;;;;;4857136;29;20050;-80
2022/06/26 00:20:14;;;;;;;8.45;1.58;;;9.90;79.70;;;;;;4850981;29;20152;-80
2022/06/26 00:22:41;;;;;;;4.20;1.45;;;10.00;79.60;;;;;;4860663;29;20050;-80
2022/06/26 00:25:09;;;;;;;7.07;1.58;;;10.00;79.70;;;;;;4861562;29;20427;-80
2022/06/26 00:27:37;;;;;;;4.95;1.55;;;9.90;79.70;;;;;;4858323;29;20057;-80
2022/06/26 00:30:05;;;;;;;5.60;1.35;;;9.90;79.90;;;;;;4849186;29;20064;-79
2022/06/26 00:32:33;;;;;;;4.50;1.58;;;9.90;80.10;;;;;;4862417;29;20048;-80
2022/06/26 00:35:01;;;;;;;7.97;1.50;;;9.90;80.20;;;;;;4870131;29;20057;-80
2022/06/26 00:37:28;;;;;;;13.90;1.95;;;10.00;80.50;;;;;;4860931;29;20060;-79
2022/06/26 00:39:56;;;;;;;6.10;1.45;;;10.00;80.50;;;;;;4840032;29;20407;-78
2022/06/26 00:42:24;;;;;;;7.65;1.35;;;10.00;80.50;;;;;;4849460;29;20053;-79
2022/06/26 00:44:55;;;;;;;5.78;1.38;;;9.90;80.50;;;;;;4855937;29;20064;-79
2022/06/26 00:47:23;;;;;;;12.30;1.55;;;10.00;80.80;;;;;;4846808;29;20041;-79
2022/06/26 00:49:51;;;;;;;13.02;1.50;;;10.00;80.90;;;;;;4855888;29;20050;-80
2022/06/26 00:52:20;;;;;;;3.85;1.40;;;10.00;80.90;;;;;;4861247;29;20046;-79
2022/06/26 00:54:49;;;;;;;7.15;2.20;;;10.00;80.90;;;;;;4854224;29;20045;-79
2022/06/26 00:57:18;;;;;;;15.05;1.73;;;10.00;81.00;;;;;;4844832;29;20069;-79
2022/06/26 00:59:50;;;;;;;6.82;1.70;;;10.00;81.50;;;;;;4856606;29;20053;-79
2022/06/26 01:02:18;;;;;;;8.13;1.25;;;10.00;81.40;;;;;;4851415;29;20049;-80
2022/06/26 01:04:45;;;;;;;12.57;1.40;;;10.00;81.40;;;;;;4849705;29;20053;-80
2022/06/26 01:07:14;;;;;;;8.52;1.50;;;10.00;81.40;;;;;;4857109;29;20045;-80
2022/06/26 01:09:42;;;;;;;4.97;1.40;;;9.90;81.50;;;;;;4851674;29;20068;-79
2022/06/26 01:12:10;;;;;;;6.13;1.35;;;9.90;81.70;;;;;;4853118;29;20054;-79
2022/06/26 01:14:40;;;;;;;7.85;1.35;;;9.90;81.80;;;;;;4852450;29;20061;-79
2022/06/26 01:17:09;;;;;;;7.93;1.58;;;9.90;81.80;;;;;;4861462;29;20060;-79
2022/06/26 01:19:37;;;;;;;4.47;1.30;;;9.90;82.30;;;;;;4843778;29;20058;-80
2022/06/26 01:22:05;;;;;;;6.18;1.30;;;9.90;82.20;;;;;;4858833;29;20404;-79
2022/06/26 01:24:33;;;;;;;11.85;1.75;;;9.90;82.30;;;;;;4850861;29;20065;-79
2022/06/26 01:27:02;;;;;;;10.07;1.48;;;9.90;82.40;;;;;;4855306;29;20041;-80
2022/06/26 01:29:30;;;;;;;9.35;1.38;;;9.90;82.60;;;;;;4844675;29;20058;-79
2022/06/26 01:31:58;;;;;;;14.88;2.10;;;9.90;82.90;;;;;;4860442;29;20101;-79
2022/06/26 01:34:26;;;;;;;9.90;1.30;;;10.00;83.30;;;;;;4860358;29;20116;-79
2022/06/26 01:37:00;;;;;;;;;;;10.00;83.10;;;;;;4860654;29;20067;-79
2022/06/26 01:39:28;;;;;;;7.20;1.45;;;10.00;83.00;;;;;;4850701;29;19924;-79
2022/06/26 01:41:55;;;;;;;7.63;1.52;;;10.00;83.00;;;;;;4859303;29;20057;-79
2022/06/26 01:44:23;;;;;;;5.72;1.52;;;10.00;83.20;;;;;;4852609;29;20050;-80
2022/06/26 01:46:51;;;;;;;9.90;1.52;;;10.10;83.40;;;;;;4833519;29;20059;-80
2022/06/26 01:49:19;;;;;;;9.82;1.70;;;10.10;83.40;;;;;;4872546;29;20057;-79
2022/06/26 01:51:46;;;;;;;5.78;1.50;;;10.10;83.30;;;;;;4859703;29;20492;-80
2022/06/26 01:54:16;;;;;;;11.48;1.50;;;10.00;83.30;;;;;;4850489;29;20053;-79
2022/06/26 01:56:44;;;;;;;10.15;1.33;;;10.00;83.40;;;;;;4848489;29;20061;-80
2022/06/26 01:59:12;;;;;;;7.05;1.23;;;10.00;83.50;;;;;;4855243;29;20508;-79
2022/06/26 02:01:44;;;;;;;10.90;1.58;;;10.00;83.60;;;;;;4860770;29;20511;-80
2022/06/26 02:04:16;;;;;;;8.55;1.45;;;10.00;83.90;;;;;;4852154;29;20104;-79
2022/06/26 02:06:45;;;;;;;9.10;1.63;;;10.00;84.00;;;;;;4837600;29;20053;-79
2022/06/26 02:15:05;;;;;;;8.07;1.70;;;10.00;84.10;;;;;;4824859;29;20065;-79
2022/06/26 02:17:33;;;;;;;6.82;1.40;;;10.00;84.10;;;;;;4827041;29;20057;-79
2022/06/26 02:20:03;;;;;;;9.57;1.60;;;10.00;84.20;;;;;;4842459;29;20056;-80
2022/06/26 02:22:32;;;;;;;11.77;1.50;;;10.00;84.40;;;;;;4848916;29;20058;-79
2022/06/26 02:25:00;;;;;;;8.75;1.40;;;10.00;84.40;;;;;;4822868;29;20061;-79
2022/06/26 02:27:28;;;;;;;8.77;1.52;;;10.00;84.70;;;;;;4856656;29;20500;-79
2022/06/26 02:29:56;;;;;;;10.55;1.80;;;10.00;84.60;;;;;;4844926;29;20049;-79
2022/06/26 02:32:23;;;;;;;9.80;1.80;;;10.00;84.90;;;;;;4827416;29;20061;-79
2022/06/26 02:34:51;;;;;;;8.48;1.50;;;10.10;85.00;;;;;;4843242;29;20049;-79
2022/06/26 02:37:18;;;;;;;10.18;1.50;;;10.10;84.90;;;;;;4843152;29;20064;-79
2022/06/26 02:39:46;;;;;;;7.75;1.42;;;10.10;85.00;;;;;;4827348;29;20042;-78
2022/06/26 02:42:14;;;;;;;10.48;1.42;;;10.10;85.10;;;;;;4842109;29;20069;-80
2022/06/26 02:44:43;;;;;;;8.40;1.35;;;10.10;85.10;;;;;;4842789;29;20567;-79
2022/06/26 02:47:11;;;;;;;12.18;2.00;;;10.10;85.10;;;;;;4839391;29;20058;-79
2022/06/26 02:49:39;;;;;;;7.15;1.38;;;10.00;85.30;;;;;;4830500;29;20052;-80
2022/06/26 02:52:06;;;;;;;10.40;1.73;;;10.00;85.40;;;;;;4860298;29;20057;-80
2022/06/26 02:54:36;;;;;;;11.60;1.58;;;10.00;85.50;;;;;;4833909;29;20049;-80
2022/06/26 02:57:04;;;;;;;12.27;1.85;;;10.00;85.40;;;;;;4854260;29;20419;-80
2022/06/26 02:59:32;;;;;;;9.20;1.75;;;10.00;85.40;;;;;;4843861;29;20072;-80
2022/06/26 03:01:59;;;;;;;10.60;1.75;;;9.90;85.30;;;;;;4868961;29;20436;-80
2022/06/26 03:04:42;;;;;;;11.38;1.60;;;9.90;85.50;;;;;;4836536;29;20050;-80
2022/06/26 03:07:15;;;;;;;12.20;1.67;;;10.00;85.60;;;;;;4847674;29;20061;-79
2022/06/26 03:09:43;;;;;;;9.70;1.80;;;9.90;85.50;;;;;;4841265;29;20057;-78
2022/06/26 03:12:11;;;;;;;8.57;1.60;;;9.90;85.60;;;;;;4855823;29;20054;-80
2022/06/26 03:14:41;;;;;;;15.52;1.77;;;9.80;85.70;;;;;;4855464;29;20054;-80
2022/06/26 03:17:09;;;;;;;8.43;1.70;;;9.90;85.80;;;;;;4862809;29;20057;-79
2022/06/26 03:19:38;;;;;;;10.25;2.10;;;9.90;86.00;;;;;;4848482;29;20050;-79
2022/06/26 03:22:06;;;;;;;11.63;1.58;;;9.90;86.30;;;;;;4856026;29;20046;-79
2022/06/26 03:24:34;;;;;;;11.95;2.00;;;9.90;86.20;;;;;;4855034;29;20104;-80
2022/06/26 03:27:02;;;;;;;12.60;1.58;;;9.90;86.20;;;;;;4856620;29;20045;-80
2022/06/26 03:29:32;;;;;;;8.73;1.30;;;9.90;86.30;;;;;;4831830;29;20503;-80
2022/06/26 03:32:04;;;;;;;10.98;1.52;;;9.90;86.40;;;;;;4862374;29;20112;-79
2022/06/26 03:34:33;;;;;;;9.18;1.60;;;10.00;86.30;;;;;;4852717;29;20046;-79
2022/06/26 03:37:02;;;;;;;10.13;1.48;;;9.90;86.30;;;;;;4858164;29;20072;-81
2022/06/26 03:39:30;;;;;;;7.93;1.73;;;9.90;86.30;;;;;;4848806;29;20049;-80
2022/06/26 03:42:00;;;;;;;9.23;1.27;;;9.90;86.30;;;;;;4864184;29;20049;-79
2022/06/26 03:44:33;;;;;;;10.25;1.52;;;9.90;86.40;;;;;;4860798;29;20423;-81
2022/06/26 03:47:00;;;;;;;10.30;1.70;;;9.90;86.50;;;;;;4865857;29;20132;-79
2022/06/26 03:49:30;;;;;;;10.70;1.63;;;9.90;86.50;;;;;;4865905;29;20061;-80
2022/06/26 03:52:01;;;;;;;11.65;1.58;;;10.00;86.60;;;;;;4851080;29;20038;-79
2022/06/26 03:54:30;;;;;;;13.93;1.98;;;10.00;86.70;;;;;;4842995;29;20061;-80
2022/06/26 03:56:58;;;;;;;19.08;1.83;;;10.00;86.50;;;;;;4853031;29;20404;-80
2022/06/26 03:59:29;;;;;;;9.63;1.80;;;10.00;86.40;;;;;;4844581;29;20049;-80
2022/06/26 04:01:59;;;;;;;10.63;1.55;;;10.00;86.50;;;;;;4849664;29;20050;-80
2022/06/26 04:04:29;;;;;;;12.07;1.70;;;10.00;86.50;;;;;;4854270;29;20049;-80
2022/06/26 04:06:57;;;;;;;14.80;1.83;;;10.00;86.40;;;;;;4853524;29;20061;-80
2022/06/26 04:09:30;;;;;;;12.20;1.50;;;10.00;86.40;;;;;;4857758;29;20496;-79
2022/06/26 04:11:58;;;;;;;16.33;1.65;;;9.90;86.50;;;;;;4833737;29;20507;-80
2022/06/26 04:14:31;;;;;;;10.43;1.55;;;9.90;86.60;;;;;;4868081;29;20132;-80
2022/06/26 04:16:58;;;;;;;10.02;1.65;;;10.00;86.40;;;;;;4855724;29;20050;-80
2022/06/26 04:19:28;;;;;;;13.35;1.45;;;9.90;86.50;;;;;;4846641;29;20074;-80
2022/06/26 04:21:58;;;;;;;15.48;1.70;;;10.00;86.50;;;;;;4846065;29;20407;-80
2022/06/26 04:24:27;;;;;;;14.10;1.63;;;10.00;86.50;;;;;;4862023;29;20045;-80
2022/06/26 04:26:55;;;;;;;11.93;1.50;;;10.00;86.50;;;;;;4833958;29;20058;-79
2022/06/26 04:29:25;;;;;;;10.10;1.75;;;10.10;86.50;;;;;;4858694;29;20056;-79
2022/06/26 04:31:53;;;;;;;8.07;1.40;;;10.10;86.50;;;;;;4848644;29;20049;-80
2022/06/26 04:34:23;;;;;;;18.85;2.08;;;10.20;86.40;;;;;;4867763;29;20054;-79
2022/06/26 04:36:52;;;;;;;7.68;1.85;;;10.20;86.40;;;;;;4855903;29;20049;-79
2022/06/26 04:39:21;;;;;;;10.40;1.30;;;10.30;86.20;;;;;;4875687;29;20064;-79
2022/06/26 04:41:50;;;;;;;13.35;1.45;;;10.30;86.20;;;;;;4848767;29;20052;-79
2022/06/26 04:44:18;;;;;;;11.30;1.65;;;10.30;86.10;;;;;;4853739;29;20061;-79
2022/06/26 04:46:52;;;;;;;6.75;1.52;;;10.30;86.10;;;;;;4855854;29;20415;-79
2022/06/26 04:49:23;;;;;;;8.32;1.98;;;10.50;86.00;;;;;;4845516;29;20046;-80
2022/06/26 04:51:51;;;;;;;15.73;1.67;;;10.50;85.90;;;;;;4856996;29;20050;-79
2022/06/26 04:54:36;;;;;;;9.43;1.48;;;10.50;85.80;;;;;;4862803;29;20392;-80
2022/06/26 04:57:05;;;;;;;16.40;1.42;;;10.50;85.70;;;;;;4860021;29;20049;-80
2022/06/26 04:59:32;;;;;;;7.15;1.50;;;10.50;85.70;;;;;;4846452;29;20050;-80
2022/06/26 05:02:06;;;;;;;13.85;1.65;;;10.50;85.70;;;;;;4854110;29;20504;-80
2022/06/26 05:04:52;;;;;;;14.88;1.50;;;10.50;85.80;;;;;;4855591;29;20046;-79
2022/06/26 05:07:20;;;;;;;7.22;1.23;;;10.60;85.70;;;;;;4845314;29;20065;-79
2022/06/26 05:09:48;;;;;;;11.93;1.70;;;10.60;85.70;;;;;;4840108;29;20052;-79
2022/06/26 05:12:15;;;;;;;10.77;1.45;;;10.60;85.60;;;;;;4853655;29;20057;-79
2022/06/26 05:15:04;;;;;;;3.55;0.93;;;10.60;85.70;;;;;;4849982;29;20070;-79
2022/06/26 05:17:44;;;;;;;5.53;1.40;;;10.70;85.60;;;;;;4845649;29;20045;-80
2022/06/26 05:20:16;;;;;;;7.00;1.35;;;10.80;85.50;;;;;;4844928;29;20522;-80
2022/06/26 05:22:43;;;;;;;11.18;1.65;;;10.80;85.30;;;;;;4850129;29;20061;-80
2022/06/26 05:25:12;;;;;;;10.13;1.27;;;10.90;85.30;;;;;;4856776;29;20057;-79
2022/06/26 05:27:40;;;;;;;9.40;1.35;;;10.90;85.20;;;;;;4844664;29;20048;-80
2022/06/26 05:30:08;;;;;;;11.10;1.17;;;11.00;85.10;;;;;;4856316;29;20065;-79
2022/06/26 05:32:42;;;;;;;8.20;0.88;;;11.20;84.90;;;;;;4860094;29;20412;-79
2022/06/26 05:35:16;;;;;;;8.35;1.30;;;11.30;84.60;;;;;;4845713;29;20052;-80
2022/06/26 05:37:44;;;;;;;9.30;1.23;;;11.40;84.40;;;;;;4859979;29;20057;-79
2022/06/26 05:40:12;;;;;;;8.70;1.40;;;11.50;84.00;;;;;;4844251;29;20057;-80
2022/06/26 05:42:42;;;;;;;7.57;1.15;;;11.70;83.80;;;;;;4860117;29;20053;-80
2022/06/26 05:45:11;;;;;;;11.95;1.40;;;11.80;83.40;;;;;;4860033;29;20048;-80
2022/06/26 05:47:41;;;;;;;8.13;1.27;;;11.90;83.10;;;;;;4844038;29;20064;-80
2022/06/26 05:50:29;;;;;;;9.55;0.90;;;12.00;82.90;;;;;;4850336;29;20065;-80
2022/06/26 05:53:09;;;;;;;7.47;1.63;;;12.20;82.40;;;;;;4841071;29;20058;-80
2022/06/26 05:55:56;;;;;;;8.88;1.75;;;12.30;81.80;;;;;;4857624;29;20041;-80
2022/06/26 05:58:35;;;;;;;9.77;1.33;;;12.20;81.60;;;;;;4859686;29;20492;-79
2022/06/26 06:01:19;;;;;;;9.07;1.20;;;12.20;81.60;;;;;;4859053;29;20058;-79
2022/06/26 06:03:50;;;;;;;10.07;1.20;;;12.20;81.40;;;;;;4845628;29;20038;-78
2022/06/26 06:06:18;;;;;;;10.98;1.33;;;12.20;81.00;;;;;;4859364;29;20065;-79
2022/06/26 06:08:46;;;;;;;3.53;0.82;;;12.30;80.90;;;;;;4874370;29;20045;-78
2022/06/26 06:11:14;;;;;;;5.95;1.20;;;12.40;80.70;;;;;;4859775;29;20064;-78
2022/06/26 06:13:41;;;;;;;9.13;1.30;;;12.50;80.50;;;;;;4859255;29;20064;-79
2022/06/26 06:16:10;;;;;;;6.45;1.23;;;12.60;80.40;;;;;;4859556;29;20049;-78
2022/06/26 06:18:39;;;;;;;6.80;1.17;;;12.70;79.90;;;;;;4844213;29;20547;-78
2022/06/26 06:21:12;;;;;;;10.45;1.13;;;12.80;79.50;;;;;;4848024;29;20049;-78
2022/06/26 06:23:42;;;;;;;8.68;1.38;;;12.90;79.30;;;;;;4865834;29;20060;-78
2022/06/26 06:26:11;;;;;;;9.75;1.20;;;13.00;79.20;;;;;;4865434;29;20049;-78
2022/06/26 06:28:39;;;;;;;6.53;1.10;;;13.20;78.80;;;;;;4843157;29;20046;-79
2022/06/26 06:31:08;;;;;;;9.82;1.35;;;13.30;78.30;;;;;;4852083;29;20050;-78
2022/06/26 06:33:36;;;;;;;10.45;1.38;;;13.50;77.70;;;;;;4857788;29;20408;-78
2022/06/26 06:36:05;;;;;;;7.78;1.42;;;13.60;76.60;;;;;;4859188;29;20049;-79
2022/06/26 06:38:33;;;;;;;10.00;1.33;;;13.60;76.60;;;;;;4858265;29;20049;-78
2022/06/26 06:41:05;;;;;;;6.82;1.27;;;13.80;76.40;;;;;;4858348;29;20061;-78
2022/06/26 06:43:46;;;;;;;4.80;1.23;;;13.80;75.80;;;;;;4858798;29;20064;-79
2022/06/26 06:46:26;;;;;;;10.07;1.25;;;13.80;75.20;;;;;;4859704;29;20046;-79
2022/06/26 06:49:01;;;;;;;5.82;0.90;;;13.80;74.90;;;;;;4858627;29;20076;-79
2022/06/26 06:51:35;;;;;;;12.13;1.42;;;13.80;75.20;;;;;;4858530;29;20491;-79
2022/06/26 06:54:03;;;;;;;7.13;1.20;;;13.90;74.80;;;;;;4859664;29;20054;-79
2022/06/26 06:56:31;;;;;;;8.60;1.20;;;13.90;74.40;;;;;;4863916;29;20057;-79
2022/06/26 06:59:00;;;;;;;10.10;1.67;;;14.00;74.30;;;;;;4860565;29;20057;-79
2022/06/26 07:01:28;;;;;;;8.32;1.40;;;14.00;74.00;;;;;;4861931;29;20057;-79
2022/06/26 07:03:55;;;;;;;6.95;1.20;;;14.10;74.30;;;;;;4860717;29;20054;-79
2022/06/26 07:06:23;;;;;;;8.38;1.10;;;14.30;73.70;;;;;;4858658;29;20427;-78
2022/06/26 07:08:52;;;;;;;4.80;1.10;;;14.30;73.20;;;;;;4846217;29;20062;-78
2022/06/26 07:11:21;;;;;;;4.78;1.00;;;14.30;72.50;;;;;;4853448;29;20050;-79
2022/06/26 07:13:49;;;;;;;9.35;1.52;;;14.30;72.30;;;;;;4851833;29;20049;-78
2022/06/26 07:16:17;;;;;;;7.45;1.20;;;14.30;72.00;;;;;;4849523;29;20050;-78
2022/06/26 07:18:45;;;;;;;6.18;1.58;;;14.40;71.70;;;;;;4854108;29;20072;-78
2022/06/26 07:21:13;;;;;;;12.88;1.65;;;14.50;71.20;;;;;;4851768;29;20049;-77
2022/06/26 07:23:42;;;;;;;11.13;2.45;;;14.60;71.00;;;;;;4854250;29;20048;-78
2022/06/26 07:26:30;;;;;;;8.23;1.33;;;14.70;71.10;;;;;;4866951;29;20525;-78
2022/06/26 07:28:57;;;;;;;8.90;1.20;;;14.90;71.00;;;;;;4865941;29;20061;-78
2022/06/26 07:31:31;;;;;;;11.88;1.58;;;15.10;69.50;;;;;;4849382;29;20484;-78
2022/06/26 07:34:12;;;;;;;7.85;1.00;;;15.20;69.00;;;;;;4850435;29;20057;-78
2022/06/26 07:36:41;;;;;;;6.50;1.30;;;15.20;68.80;;;;;;4850648;29;20424;-79
2022/06/26 07:39:15;;;;;;;8.73;1.38;;;15.10;69.30;;;;;;4854339;29;20057;-77
2022/06/26 07:41:44;;;;;;;9.67;1.23;;;15.00;69.40;;;;;;4851543;29;20049;-77
2022/06/26 07:44:12;;;;;;;6.35;1.40;;;14.90;69.40;;;;;;4853631;29;20042;-79
2022/06/26 07:46:41;;;;;;;10.35;1.33;;;15.00;69.00;;;;;;4876111;29;20041;-79
2022/06/26 07:49:12;;;;;;;5.95;1.10;;;15.00;68.80;;;;;;4853791;29;20076;-78
2022/06/26 07:51:41;;;;;;;11.82;1.70;;;15.10;69.30;;;;;;4852337;29;20045;-78
2022/06/26 07:54:09;;;;;;;8.60;1.15;;;15.30;68.40;;;;;;4855539;29;20057;-78
2022/06/26 07:56:37;;;;;;;8.63;1.30;;;15.40;67.20;;;;;;4851820;29;20052;-79
2022/06/26 07:59:05;;;;;;;4.18;1.23;;;15.40;66.60;;;;;;4853926;29;20546;-78
2022/06/26 08:01:33;;;;;;;8.98;1.20;;;15.50;65.80;;;;;;4856161;29;20061;-79
2022/06/26 08:04:01;;;;;;;10.95;1.30;;;15.40;66.20;;;;;;4855553;29;20064;-78
2022/06/26 08:06:30;;;;;;;9.48;1.45;;;15.30;65.90;;;;;;4857784;29;20042;-78
2022/06/26 08:08:57;;;;;;;4.13;1.20;;;15.30;65.00;;;;;;4853099;29;20065;-78
2022/06/26 08:11:26;;;;;;;9.20;1.35;;;15.30;65.30;;;;;;4852929;29;20396;-79
2022/06/26 08:13:54;;;;;;;7.80;1.20;;;15.30;65.30;;;;;;4857338;29;20048;-79
2022/06/26 08:16:22;;;;;;;7.85;1.20;;;15.30;65.60;;;;;;4856453;29;20085;-78
2022/06/26 08:18:51;;;;;;;7.80;1.38;;;15.40;64.60;;;;;;4853877;29;20064;-78
2022/06/26 08:24:05;;;;;;;10.95;1.77;;;15.60;62.80;;;;;;4854106;29;20049;-78
2022/06/26 08:26:38;;;;;;;7.95;1.50;;;15.60;63.30;;;;;;4853803;29;20096;-77
2022/06/26 08:29:06;;;;;;;4.38;0.73;;;15.90;63.80;;;;;;4853577;29;20541;-78
2022/06/26 08:31:34;;;;;;;5.60;1.08;;;16.20;61.70;;;;;;4853533;29;20049;-79
2022/06/26 08:34:02;;;;;;;8.10;1.05;;;16.30;59.60;;;;;;4853864;29;20415;-78
2022/06/26 08:36:30;;;;;;;6.20;1.17;;;16.40;58.50;;;;;;4850166;29;20057;-78
2022/06/26 08:39:03;;;;;;;8.38;1.10;;;16.30;58.50;;;;;;4853325;29;20048;-79
2022/06/26 08:41:39;;;;;;;9.77;1.20;;;16.30;58.80;;;;;;4851189;29;20447;-79
2022/06/26 08:44:08;;;;;;;7.30;1.50;;;16.30;59.50;;;;;;4856008;29;20050;-78
2022/06/26 08:46:41;;;;;;;4.10;1.00;;;16.50;59.10;;;;;;4850664;29;20046;-79
2022/06/26 08:49:23;;;;;;;8.32;1.40;;;16.70;57.40;;;;;;4855576;29;20057;-78
2022/06/26 08:51:59;;;;;;;9.63;1.10;;;16.70;57.10;;;;;;4861482;29;20052;-77
2022/06/26 08:54:28;;;;;;;9.88;1.33;;;16.80;56.90;;;;;;4860341;29;20438;-76
2022/06/26 08:56:57;;;;;;;9.23;1.33;;;16.80;56.10;;;;;;4860622;29;20180;-77
2022/06/26 08:59:25;;;;;;;4.55;1.20;;;16.80;56.30;;;;;;4858703;29;20045;-76
2022/06/26 09:01:53;;;;;;;6.72;1.10;;;16.90;55.40;;;;;;4857289;29;20531;-78
2022/06/26 09:04:21;;;;;;;5.97;1.17;;;16.80;55.80;;;;;;4859267;29;20041;-77
2022/06/26 09:06:48;;;;;;;10.52;1.23;;;16.90;55.30;;;;;;4858595;29;20058;-77
2022/06/26 09:09:18;;;;;;;5.28;1.05;;;16.90;54.50;;;;;;4852054;29;20045;-77
2022/06/26 09:11:46;;;;;;;8.23;1.10;;;16.80;55.40;;;;;;4859825;29;20072;-77
2022/06/26 09:14:15;;;;;;;7.32;1.45;;;16.80;55.60;;;;;;4853546;29;20412;-78
2022/06/26 09:16:44;;;;;;;8.60;1.08;;;16.80;56.10;;;;;;4855304;29;20053;-76
2022/06/26 09:19:36;;;;;;;9.73;1.50;;;16.80;55.50;;;;;;4856002;29;20057;-76
2022/06/26 09:22:15;;;;;;;4.82;0.98;;;16.70;56.00;;;;;;4856777;29;20053;-75
2022/06/26 09:24:55;;;;;;;4.40;1.00;;;16.60;55.30;;;;;;4861168;29;20046;-78
2022/06/26 09:27:22;;;;;;;8.25;1.48;;;16.70;55.30;;;;;;4859740;29;20054;-78
2022/06/26 09:29:54;;;;;;;7.93;1.17;;;16.80;55.10;;;;;;4861067;29;20049;-78
2022/06/26 09:32:24;;;;;;;9.88;1.20;;;16.80;54.40;;;;;;4860839;29;20056;-78
2022/06/26 09:34:52;;;;;;;5.45;1.38;;;16.80;54.20;;;;;;4861865;29;20053;-77
2022/06/26 09:37:21;;;;;;;6.75;1.27;;;17.00;54.30;;;;;;4859344;29;20042;-77
2022/06/26 09:40:14;;;;;;;6.40;1.35;;;17.20;53.10;;;;;;4860837;29;20487;-76
2022/06/26 09:42:42;;;;;;;4.95;1.05;;;17.30;53.60;;;;;;4861116;29;20412;-77
2022/06/26 09:45:10;;;;;;;8.23;1.08;;;17.40;52.90;;;;;;4860976;29;20077;-77
2022/06/26 09:47:39;;;;;;;10.23;1.42;;;17.80;52.20;;;;;;4860969;29;20060;-78
2022/06/26 09:50:08;;;;;;;6.47;1.17;;;18.00;50.50;;;;;;4859984;29;20050;-77
2022/06/26 09:52:36;;;;;;;7.70;1.15;;;18.10;49.00;;;;;;4861193;29;20046;-78
2022/06/26 09:55:06;;;;;;;8.25;1.30;;;18.10;48.70;;;;;;4859296;29;20052;-78
2022/06/26 09:57:36;;;;;;;4.78;1.55;;;18.30;48.00;;;;;;4858760;29;20041;-80
2022/06/26 10:00:07;;;;;;;8.43;1.25;;;18.40;48.40;;;;;;4853699;29;20056;-77
2022/06/26 10:08:21;;;;;;;6.00;1.05;;;18.60;47.30;;;;;;4842238;29;20423;-76
2022/06/26 10:10:49;;;;;;;6.97;1.20;;;18.40;46.90;;;;;;4841996;29;20500;-77
2022/06/26 10:13:24;;;;;;;7.07;1.17;;;18.40;47.50;;;;;;4855016;29;20056;-77
2022/06/26 10:16:01;;;;;;;8.85;1.27;;;18.30;47.40;;;;;;4860382;29;20412;-77
2022/06/26 10:18:44;;;;;;;8.05;1.40;;;18.30;47.00;;;;;;4860211;29;20057;-77
2022/06/26 10:21:15;;;;;;;7.83;1.43;;;18.20;47.70;;;;;;4859308;29;20054;-78
2022/06/26 10:23:43;;;;;;;5.68;1.08;;;18.20;47.90;;;;;;4858200;29;20301;-79
2022/06/26 10:26:21;;;;;;;2.78;0.80;;;18.20;48.00;;;;;;4859117;29;20515;-79
2022/06/26 10:28:59;;;;;;;5.32;1.10;;;18.40;47.40;;;;;;4858657;29;20383;-77
2022/06/26 10:31:47;;;;;;;9.43;1.30;;;18.30;46.70;;;;;;4858593;29;20492;-78
2022/06/26 10:34:25;;;;;;;2.85;1.13;;;18.40;47.40;;;;;;4860252;29;20060;-77
2022/06/26 10:37:02;;;;;;;9.30;1.00;;;18.60;47.70;;;;;;4858793;29;20488;-78
2022/06/26 10:39:38;;;;;;;6.90;1.25;;;18.80;47.10;;;;;;4839932;29;20058;-77
2022/06/26 10:45:12;;;;;;;3.88;0.98;;;19.10;45.10;;;;;;4853307;29;20053;-77
2022/06/26 10:47:45;;;;;;;7.95;1.23;;;19.20;45.10;;;;;;4852609;29;20049;-77
2022/06/26 10:50:30;;;;;;;7.70;1.15;;;19.40;44.60;;;;;;4859969;29;20045;-76
2022/06/26 10:53:22;;;;;;;9.60;1.15;;;19.40;43.80;;;;;;4860104;29;20522;-76
2022/06/26 10:55:54;;;;;;;6.10;1.45;;;19.50;43.80;;;;;;4857585;29;20057;-77
2022/06/26 10:58:30;;;;;;;5.55;1.23;;;19.50;44.30;;;;;;4859716;29;20054;-76
2022/06/26 11:01:00;;;;;;;6.30;0.80;;;19.70;44.00;;;;;;4861185;29;20519;-77
2022/06/26 11:03:30;;;;;;;3.78;0.88;;;19.80;43.20;;;;;;4859954;29;20058;-76
2022/06/26 11:06:03;;;;;;;5.55;1.15;;;20.00;41.60;;;;;;4860171;29;20058;-77
2022/06/26 11:08:35;;;;;;;4.22;1.00;;;20.10;41.70;;;;;;4859889;29;20057;-77
2022/06/26 11:11:07;;;;;;;2.78;0.77;;;20.20;42.10;;;;;;4859949;29;20056;-77
2022/06/26 11:13:47;;;;;;;6.63;1.15;;;20.30;42.20;;;;;;4859760;29;20054;-76
2022/06/26 11:16:15;;;;;;;9.45;1.17;;;20.60;40.90;;;;;;4861701;29;20050;-76
2022/06/26 11:18:43;;;;;;;4.88;1.50;;;20.60;41.20;;;;;;4859442;29;20045;-77
2022/06/26 11:21:16;;;;;;;6.38;1.38;;;20.80;40.40;;;;;;4859701;29;20050;-77
2022/06/26 11:23:44;;;;;;;6.60;0.90;;;20.80;39.80;;;;;;4858608;29;20053;-77
2022/06/26 11:26:14;;;;;;;4.07;1.23;;;20.80;40.10;;;;;;4858794;29;20058;-75
2022/06/26 11:28:43;;;;;;;5.90;1.30;;;20.80;40.40;;;;;;4863358;29;20068;-75
2022/06/26 11:31:19;;;;;;;10.15;1.40;;;20.80;40.50;;;;;;4829480;29;20061;-76
2022/06/26 11:33:47;;;;;;;7.32;1.00;;;20.80;40.60;;;;;;4843948;29;20061;-76
2022/06/26 11:36:17;;;;;;;4.65;1.10;;;20.60;40.30;;;;;;4844410;29;20054;-76
2022/06/26 11:38:55;;;;;;;5.22;1.35;;;20.40;41.20;;;;;;4853299;29;20061;-76
2022/06/26 11:41:24;;;;;;;2.22;0.93;;;20.30;41.60;;;;;;4860695;29;20061;-77
2022/06/26 11:43:54;;;;;;;6.13;1.20;;;20.30;41.90;;;;;;4860597;29;20042;-77
2022/06/26 11:46:22;;;;;;;4.63;1.25;;;20.70;41.90;;;;;;4862659;29;20071;-76
2022/06/26 11:48:52;;;;;;;7.05;1.40;;;21.00;41.70;;;;;;4862491;29;20050;-77
2022/06/26 11:51:21;;;;;;;4.03;0.85;;;21.40;40.60;;;;;;4862122;29;20053;-77
2022/06/26 11:53:51;;;;;;;7.75;1.40;;;21.30;39.10;;;;;;4862744;29;20049;-76
2022/06/26 11:56:27;;;;;;;7.10;1.20;;;21.30;39.90;;;;;;4862112;29;20061;-77
2022/06/26 11:58:57;;;;;;;6.38;1.02;;;21.40;40.50;;;;;;4862487;29;20065;-77
2022/06/26 12:01:33;;;;;;;7.97;1.30;;;21.50;38.90;;;;;;4861781;29;20061;-77
2022/06/26 12:04:01;;;;;;;5.07;1.02;;;21.30;39.00;;;;;;4862548;29;20049;-76
2022/06/26 12:06:34;;;;;;;11.45;1.70;;;21.00;39.20;;;;;;4861437;29;20045;-77
2022/06/26 12:09:21;;;;;;;3.05;1.10;;;20.80;40.10;;;;;;4843003;29;20050;-77
2022/06/26 12:11:50;;;;;;;;;;;20.60;40.60;;;;;;4843469;29;20049;-76
2022/06/26 12:14:19;;;;;;;5.70;1.25;;;20.50;40.30;;;;;;4855280;29;19931;-77
2022/06/26 12:16:53;;;;;;;15.90;1.70;;;20.30;40.20;;;;;;4860678;29;20042;-77
2022/06/26 12:19:21;;;;;;;10.57;1.30;;;20.20;41.10;;;;;;4861308;29;20061;-78
2022/06/26 12:21:51;;;;;;;5.60;1.20;;;20.00;41.80;;;;;;4862890;29;20049;-76
2022/06/26 12:24:20;;;;;;;3.97;1.13;;;20.00;42.00;;;;;;4862500;29;20488;-77
2022/06/26 12:26:48;;;;;;;5.63;1.15;;;20.10;41.20;;;;;;4852973;29;20065;-76
2022/06/26 12:29:21;;;;;;;5.50;1.30;;;20.00;41.50;;;;;;4857676;29;20057;-75
2022/06/26 12:31:52;;;;;;;2.28;0.88;;;19.90;42.20;;;;;;4863658;29;20064;-76
2022/06/26 12:34:20;;;;;;;11.68;1.20;;;19.80;42.30;;;;;;4859474;29;20053;-74
2022/06/26 12:36:50;;;;;;;5.03;0.90;;;19.80;42.20;;;;;;4858152;29;20061;-78
2022/06/26 12:39:17;;;;;;;6.90;1.05;;;19.90;41.30;;;;;;4855172;29;20042;-76
2022/06/26 12:42:05;;;;;;;3.13;0.98;;;19.80;41.80;;;;;;4863152;29;20037;-78
2022/06/26 12:44:33;;;;;;;7.45;1.40;;;19.80;41.00;;;;;;4859503;29;20058;-77
2022/06/26 12:47:01;;;;;;;5.97;1.10;;;19.60;41.50;;;;;;4862743;29;20057;-77
2022/06/26 12:49:29;;;;;;;4.47;0.80;;;19.50;42.10;;;;;;4859734;29;20052;-78
2022/06/26 12:52:01;;;;;;;6.50;1.10;;;19.50;41.70;;;;;;4855335;29;20058;-76
2022/06/26 12:54:29;;;;;;;5.15;1.13;;;19.60;41.50;;;;;;4851534;29;20050;-77
2022/06/26 12:56:56;;;;;;;4.97;1.13;;;19.70;41.40;;;;;;4856165;29;20064;-76
2022/06/26 12:59:24;;;;;;;6.55;1.30;;;20.00;41.00;;;;;;4858049;29;20057;-76
2022/06/26 13:01:52;;;;;;;7.80;1.00;;;20.30;39.90;;;;;;4859933;29;20046;-77
2022/06/26 13:04:19;;;;;;;6.30;0.90;;;20.30;39.90;;;;;;4849528;29;20045;-77
2022/06/26 13:06:47;;;;;;;5.38;1.20;;;20.30;40.30;;;;;;4859188;29;20443;-78
2022/06/26 13:09:15;;;;;;;3.25;0.90;;;20.50;40.40;;;;;;4861683;29;20052;-78
2022/06/26 13:11:43;;;;;;;5.55;0.80;;;20.80;39.30;;;;;;4858459;29;20050;-77
2022/06/26 13:14:11;;;;;;;3.67;1.02;;;21.30;38.20;;;;;;4858245;29;20617;-76
2022/06/26 13:16:40;;;;;;;4.55;1.08;;;21.70;38.30;;;;;;4858427;29;20060;-76
2022/06/26 13:19:09;;;;;;;4.25;1.10;;;22.30;37.40;;;;;;4859430;29;20041;-76